• Join FlightAware (Why Join?)
  • Login
  • US Flag 
06:45AM EDT


 

Airport Tracker/Info


-or-


 

Live Flight TrackerFlight Track Log ✈ DAL2110 ✈ 21-Apr-2013 ✈ KDFW - KATL

Flight Track Log - Related Links

Times and Time Zones

All times are in EDT time to prevent confusion due to time zone crossing. See the DAL2110 flight status page for this flight to view local times or setup timezone preferences in your user account.

Time Position Orientation Groundspeed Altitude Reporting Facility
EDT Latitude Longitude Course Direction KTS MPH feet Rate Location/Type
02:41PM 32.8500 -97.0333 90° East 186 214 2,100  Level Dallas / Fort Worth TRACON
02:42PM 32.7833 -97.0333 180° South 257 296 5,000 2,640 Climbing Dallas / Fort Worth TRACON
02:44PM 32.7460 -96.6121 68° East  Level FlightAware Approximate
02:44PM 32.6906 -96.9494 143° Southeast 249 287 9,900  Level Fort Worth Center
02:45PM 32.7993 -96.4653 65° Northeast  Level FlightAware Approximate
02:45PM 32.6944 -96.8506 87° East 275 316 9,900  Level Fort Worth Center
02:46PM 32.8500 -96.3183 90° East  Level FlightAware Approximate
02:46PM 32.7231 -96.7294 74° East 325 374 11,000  Level Fort Worth Center
02:47PM 32.8667 -96.1610 90° East  Level FlightAware Approximate
02:47PM 32.7642 -96.6203 66° East 383 441 13,300  Level Fort Worth Center
02:48PM 32.8133 -96.4792 67° East 410 472 15,700 2,040 Climbing Fort Worth Center
02:49PM 32.8561 -96.3600 67° East 421 484 17,400 1,800 Climbing Fort Worth Center
02:50PM 32.8672 -96.1967 85° East 437 503 19,400 1,740 Climbing Fort Worth Center
02:51PM 32.8700 -96.0531 89° East 466 536 20,900 1,620 Climbing Fort Worth Center
02:52PM 32.8742 -95.8775 88° East 483 556 22,700 1,560 Climbing Fort Worth Center
02:53PM 32.8764 -95.7239 89° East 497 572 24,100 1,140 Climbing Fort Worth Center
02:54PM 32.8800 -95.5433 89° East 502 578 25,000 600 Climbing Fort Worth Center
02:55PM 32.8817 -95.3750 89° East 502 578 25,400 900 Climbing Fort Worth Center
02:56PM 32.9000 -95.2261 82° East 502 578 26,900 1,500 Climbing Fort Worth Center
02:57PM 32.9242 -95.0622 80° East 502 578 28,500 1,500 Climbing Fort Worth Center
02:58PM 32.9503 -94.8983 79° East 502 578 29,900 1,200 Climbing Fort Worth Center
02:59PM 32.9761 -94.7342 79° East 507 583 30,900 540 Climbing Fort Worth Center
03:00PM 33.0014 -94.5625 80° East 507 583 31,000  Climbing Fort Worth Center
03:01PM 33.0247 -94.3981 80° East 507 583 31,000  Level Fort Worth Center
03:02PM 33.0497 -94.2286 80° East 507 583 31,000  Level Fort Worth Center
03:03PM 33.0728 -94.0619 81° East 507 583 31,000  Level Fort Worth Center
03:04PM 33.0953 -93.8950 81° East 507 583 31,000  Level Fort Worth Center
03:05PM 33.1194 -93.7228 80° East 507 583 31,000  Level Fort Worth Center
03:06PM 33.1458 -93.5581 79° East 507 583 31,000  Level Fort Worth Center
03:07PM 33.1697 -93.3883 80° East 507 583 31,000  Level Fort Worth Center
03:08PM 33.1936 -93.2208 80° East 507 583 31,000  Level Fort Worth Center
03:09PM 33.2169 -93.0508 81° East 507 583 31,000  Level Fort Worth Center
03:10PM 33.2422 -92.8783 80° East 513 590 31,000  Level Fort Worth Center
03:11PM 33.2525 -92.7039 86° East 519 597 31,000  Level Fort Worth Center
03:13PM 33.1742 -92.3328 104° East 512 589 31,000  Level Memphis Center
03:14PM 33.1369 -92.1608 104° East 522 601 31,000  Level Memphis Center
03:15PM 33.1017 -92.0064 105° East 533 613 31,000  Level Memphis Center
03:16PM 33.0642 -91.8347 105° East 533 613 31,000  Level Memphis Center
03:17PM 33.0283 -91.6681 104° East 533 613 31,000  Level Memphis Center
03:18PM 32.9925 -91.4917 104° East 533 613 31,000  Level Memphis Center
03:19PM 32.9542 -91.3203 105° East 533 613 31,000  Level Memphis Center
03:20PM 32.9158 -91.1492 105° East 533 613 31,000  Level Memphis Center
03:21PM 32.8731 -90.9558 105° East 538 619 31,000  Level Memphis Center
03:22PM 32.8361 -90.7875 105° East 533 613 31,000  Level Memphis Center
03:23PM 32.7969 -90.6119 105° East 533 613 31,000  Level Memphis Center
03:24PM 32.7594 -90.4436 105° East 533 613 31,000  Level Memphis Center
03:25PM 32.7200 -90.2733 105° East 533 613 31,000  Level Memphis Center
03:26PM 32.6842 -90.1031 104° East 533 613 31,000  Level Memphis Center
03:27PM 32.6628 -89.9278 98° East 528 608 31,000  Level Memphis Center
03:28PM 32.6433 -89.7528 97° East 528 608 31,000  Level Memphis Center
03:29PM 32.6217 -89.5953 99° East 535 616 31,000  Level Memphis Center
03:30PM 32.5972 -89.4178 99° East 540 621 31,000  Level Memphis Center
03:31PM 32.5731 -89.2481 100° East 540 621 31,000  Level Memphis Center
03:32PM 32.5503 -89.0708 99° East 540 621 31,000  Level Memphis Center
03:33PM 32.5256 -88.9011 100° East 540 621 31,000  Level Memphis Center
03:34PM 32.5025 -88.7267 99° East 534 615 31,000  Level Memphis Center
03:37PM 32.4442 -88.3336 100° East 531 611 31,000  Level Atlanta Center
03:38PM 32.4522 -88.1569 87° East 517 595 31,000 -120 Level Atlanta Center
03:39PM 32.4856 -87.9639 78° East 537 618 30,800 -600 Descending Atlanta Center
03:40PM 32.5244 -87.7883 75° East 551 634 29,800 -900 Descending Atlanta Center
03:41PM 32.5611 -87.6097 76° East 551 634 29,000 -420 Descending Atlanta Center
03:42PM 32.5994 -87.4314 76° East 551 634 29,000 -60 Level Atlanta Center
03:43PM 32.6378 -87.2553 75° East 551 634 28,900 -600 Descending Atlanta Center
03:44PM 32.6756 -87.0767 76° East 551 634 27,800 -960 Descending Atlanta Center
03:45PM 32.7111 -86.9025 76° East 544 626 27,000 -840 Descending Atlanta Center
03:46PM 32.7464 -86.7258 77° East 549 632 26,200 -780 Descending Atlanta Center
03:47PM 32.7786 -86.5786 75° East 549 632 25,500 -660 Descending Atlanta Center
03:48PM 32.8242 -86.3897 74° East 544 626 24,900 -540 Descending Atlanta Center
03:49PM 32.8733 -86.2178 71° East 549 632 24,500 -360 Descending Atlanta Center
03:50PM 32.9158 -86.0506 73° East 543 625 24,200 -540 Descending Atlanta Center
03:51PM 32.9603 -85.8808 73° East 533 613 23,500 -1,560 Descending Atlanta Center
03:52PM 33.0042 -85.7183 72° East 528 608 21,100 -2,400 Descending Atlanta Center
03:53PM 33.0439 -85.5703 72° East 500 575 18,700 -2,700 Descending Atlanta Center
03:54PM 33.0831 -85.4122 73° East 463 533 15,800 -2,580 Descending Atlanta Center
03:55PM 33.1333 -85.2000 74° East 411 473 12,000 -1,920 Descending Atlanta TRACON
03:56PM 33.1528 -85.1481 66° East 413 475 12,000  Level Atlanta Center
03:57PM 33.2058 -85.0319 61° Northeast 398 458 12,000 -540 Level Atlanta Center
03:58PM 33.2858 -84.9583 38° Northeast 370 426 11,000 -960 Descending Atlanta Center
03:59PM 33.3531 -84.8944 38° Northeast 330 380 10,100 -1,200 Descending Atlanta Center
03:59PM 33.4000 -84.8500 38° Northeast 298 343 9,100 -1,920 Descending Atlanta TRACON
04:00PM 33.4500 -84.8000 40° Northeast 282 325 7,100 -1,320 Descending Atlanta TRACON
04:01PM 33.5000 -84.7500 40° Northeast 214 246 6,500 -840 Descending Atlanta TRACON
04:02PM 33.5500 -84.7167 29° Northeast 182 209 5,500 -1,080 Descending Atlanta TRACON
04:03PM 33.5833 -84.6667 51° Northeast 187 215 4,400 -1,080 Descending Atlanta TRACON
04:04PM 33.6000 -84.6167 68° East 174 200 3,400 -1,020 Descending Atlanta TRACON